createdAt,value
2018-12-27T00:00:17.101Z,44.5
2018-12-27T00:01:17.320Z,44.52
2018-12-27T00:02:17.347Z,44.49
2018-12-27T00:03:17.185Z,44.52
2018-12-27T00:04:17.589Z,44.53
2018-12-27T00:05:17.104Z,44.49
2018-12-27T00:06:17.069Z,44.51
2018-12-27T00:07:17.389Z,44.51
2018-12-27T00:08:17.119Z,44.54
2018-12-27T00:09:17.147Z,44.47
2018-12-27T00:10:16.977Z,44.47
2018-12-27T00:11:17.417Z,44.46
2018-12-27T00:12:17.302Z,44.5
2018-12-27T00:13:17.307Z,44.47
2018-12-27T00:14:17.160Z,44.47
2018-12-27T00:15:17.216Z,44.52
2018-12-27T00:16:17.700Z,44.48
2018-12-27T00:17:17.302Z,44.52
2018-12-27T00:18:17.335Z,44.52
2018-12-27T00:19:17.089Z,44.52
2018-12-27T00:20:18.172Z,44.54
2018-12-27T00:21:17.104Z,44.45
2018-12-27T00:22:17.210Z,44.48
2018-12-27T00:23:17.285Z,44.48
2018-12-27T00:24:17.151Z,44.52
2018-12-27T00:25:17.181Z,44.5
2018-12-27T00:26:17.266Z,44.52
2018-12-27T00:27:17.685Z,44.54
2018-12-27T00:28:17.575Z,44.54
2018-12-27T00:29:17.489Z,44.48
2018-12-27T00:30:17.754Z,44.5
2018-12-27T00:31:17.446Z,44.52
2018-12-27T00:32:17.411Z,44.52
2018-12-27T00:33:17.527Z,44.47
2018-12-27T00:34:17.098Z,44.53
2018-12-27T00:35:17.597Z,44.6
2018-12-27T00:36:16.985Z,44.57
2018-12-27T00:37:17.134Z,44.52
2018-12-27T00:38:17.731Z,44.54
2018-12-27T00:39:17.569Z,44.51
2018-12-27T00:40:17.218Z,44.53
2018-12-27T00:41:17.004Z,44.53
2018-12-27T00:42:17.028Z,44.51
2018-12-27T00:43:17.204Z,44.52
2018-12-27T00:44:17.791Z,44.49
2018-12-27T00:45:17.630Z,44.56
2018-12-27T00:46:17.201Z,44.53
2018-12-27T00:47:17.601Z,44.5
2018-12-27T00:48:17.212Z,44.54
2018-12-27T00:49:16.978Z,44.54
2018-12-27T00:50:17.321Z,44.51
2018-12-27T00:51:17.262Z,44.5
2018-12-27T00:52:17.641Z,44.54
2018-12-27T00:53:17.454Z,44.5
2018-12-27T00:54:17.263Z,44.5
2018-12-27T00:55:17.282Z,44.51
2018-12-27T00:56:17.619Z,44.55
2018-12-27T00:57:17.169Z,44.53
2018-12-27T00:58:17.041Z,44.52
2018-12-27T00:59:17.387Z,44.56
2018-12-27T01:00:16.940Z,44.52
2018-12-27T01:01:17.514Z,44.51
2018-12-27T01:02:17.299Z,44.53
2018-12-27T01:03:17.022Z,44.57
2018-12-27T01:04:17.167Z,44.51
2018-12-27T01:05:17.271Z,44.55
2018-12-27T01:06:17.100Z,44.57
2018-12-27T01:07:17.084Z,44.52
2018-12-27T01:08:16.922Z,44.48
2018-12-27T01:09:17.145Z,44.47
2018-12-27T01:10:17.484Z,44.61
2018-12-27T01:11:17.008Z,44.59
2018-12-27T01:12:17.191Z,44.48
2018-12-27T01:13:17.290Z,44.57
2018-12-27T01:14:17.067Z,44.54
2018-12-27T01:15:17.350Z,44.5
2018-12-27T01:16:17.611Z,44.46
2018-12-27T01:17:17.176Z,44.48
2018-12-27T01:18:17.124Z,44.47
2018-12-27T01:19:17.025Z,44.55
2018-12-27T01:20:17.436Z,44.52
2018-12-27T01:21:17.553Z,44.53
2018-12-27T01:22:17.956Z,44.56
2018-12-27T01:23:18.022Z,44.56
2018-12-27T01:24:17.686Z,44.51
2018-12-27T01:25:17.357Z,44.5
2018-12-27T01:26:17.121Z,44.55
2018-12-27T01:27:17.364Z,44.48
2018-12-27T01:28:17.137Z,44.5
2018-12-27T01:29:17.414Z,44.56
2018-12-27T01:30:17.849Z,44.5
2018-12-27T01:31:17.417Z,44.51
2018-12-27T01:32:17.420Z,44.62
2018-12-27T01:33:19.270Z,44.56
2018-12-27T01:34:17.109Z,44.53
2018-12-27T01:35:17.163Z,44.53
2018-12-27T01:36:17.128Z,44.58
2018-12-27T01:37:17.162Z,44.59
2018-12-27T01:38:17.077Z,44.54
2018-12-27T01:39:17.146Z,44.6
2018-12-27T01:40:17.174Z,44.59
2018-12-27T01:41:17.036Z,44.53
2018-12-27T01:42:17.234Z,44.59
2018-12-27T01:43:16.908Z,44.62
2018-12-27T01:44:17.083Z,44.57
2018-12-27T01:45:17.239Z,44.64
2018-12-27T01:46:16.953Z,44.56
2018-12-27T01:47:17.206Z,44.58
2018-12-27T01:48:17.150Z,44.56
2018-12-27T01:49:17.046Z,44.54
2018-12-27T01:50:17.207Z,44.58
2018-12-27T01:51:17.295Z,44.56
2018-12-27T01:52:17.153Z,44.55
2018-12-27T01:53:17.221Z,44.53
2018-12-27T01:54:17.167Z,44.63
2018-12-27T01:55:17.020Z,44.54
2018-12-27T01:56:17.066Z,44.57
2018-12-27T01:57:17.294Z,44.54
2018-12-27T01:58:17.100Z,44.53
2018-12-27T01:59:17.309Z,44.5
2018-12-27T02:00:17.330Z,44.55
2018-12-27T02:01:17.655Z,44.57
2018-12-27T02:02:17.170Z,44.57
2018-12-27T02:03:18.014Z,44.56
2018-12-27T02:04:18.060Z,44.54
2018-12-27T02:05:17.467Z,44.52
2018-12-27T02:06:17.390Z,44.57
2018-12-27T02:07:17.056Z,44.57
2018-12-27T02:08:17.491Z,44.54
2018-12-27T02:09:17.406Z,44.52
2018-12-27T02:10:17.923Z,44.57
2018-12-27T02:11:17.612Z,44.53
2018-12-27T02:12:17.341Z,44.56
2018-12-27T02:13:17.198Z,44.51
2018-12-27T02:14:17.769Z,44.57
2018-12-27T02:15:17.362Z,44.57
2018-12-27T02:16:17.855Z,44.58
2018-12-27T02:17:17.041Z,44.57
2018-12-27T02:18:17.350Z,44.52
2018-12-27T02:19:17.140Z,44.51
2018-12-27T02:20:17.464Z,44.57
2018-12-27T02:21:17.975Z,44.52
2018-12-27T02:22:17.666Z,44.54
2018-12-27T02:23:17.574Z,44.56
2018-12-27T02:24:17.482Z,44.53
2018-12-27T02:25:17.815Z,44.57
2018-12-27T02:26:16.970Z,44.57
2018-12-27T02:27:17.210Z,44.52
2018-12-27T02:28:17.097Z,44.55
2018-12-27T02:29:17.440Z,44.53
2018-12-27T02:30:17.743Z,44.58
2018-12-27T02:31:17.151Z,44.59
2018-12-27T02:32:17.102Z,44.58
2018-12-27T02:33:17.288Z,44.52
2018-12-27T02:34:17.078Z,44.56
2018-12-27T02:35:17.022Z,44.62
2018-12-27T02:36:17.126Z,44.63
2018-12-27T02:37:17.029Z,44.6
2018-12-27T02:38:24.049Z,44.54
2018-12-27T02:39:24.170Z,44.61
2018-12-27T02:40:24.865Z,44.53
2018-12-27T02:41:24.056Z,44.56
2018-12-27T02:42:24.096Z,44.59
2018-12-27T02:43:23.990Z,44.63
2018-12-27T02:44:23.875Z,44.56
2018-12-27T02:45:24.066Z,44.6
2018-12-27T02:46:24.341Z,44.57
2018-12-27T02:47:24.405Z,44.62
2018-12-27T02:48:23.987Z,44.57
2018-12-27T02:49:24.321Z,44.57
2018-12-27T02:50:24.006Z,44.59
2018-12-27T02:51:24.366Z,44.58
2018-12-27T02:52:23.875Z,44.56
2018-12-27T02:53:24.290Z,44.58
2018-12-27T02:54:24.077Z,44.61
2018-12-27T02:55:23.925Z,44.63
2018-12-27T02:56:23.878Z,44.56
2018-12-27T02:57:24.074Z,44.57
2018-12-27T02:58:24.187Z,44.55
2018-12-27T02:59:24.173Z,44.57
2018-12-27T03:00:23.999Z,44.57
2018-12-27T03:01:23.855Z,44.55
2018-12-27T03:02:23.887Z,44.54
2018-12-27T03:03:24.179Z,44.56
2018-12-27T03:04:24.274Z,44.56
2018-12-27T03:05:23.909Z,44.52
2018-12-27T03:06:24.146Z,44.52
2018-12-27T03:07:23.898Z,44.49
2018-12-27T03:08:23.890Z,44.54
2018-12-27T03:09:24.347Z,44.54
2018-12-27T03:10:24.276Z,44.52
2018-12-27T03:11:23.860Z,44.57
2018-12-27T03:12:24.035Z,44.53
2018-12-27T03:13:24.487Z,44.54
2018-12-27T03:14:23.952Z,44.53
2018-12-27T03:15:23.882Z,44.56
2018-12-27T03:16:24.373Z,44.57
2018-12-27T03:17:23.860Z,44.6
2018-12-27T03:18:24.327Z,44.61
2018-12-27T03:19:23.904Z,44.61
2018-12-27T03:20:23.816Z,44.62
2018-12-27T03:21:23.935Z,44.57
2018-12-27T03:22:24.082Z,44.55
2018-12-27T03:23:24.149Z,44.59
2018-12-27T03:24:23.969Z,44.55
2018-12-27T03:25:24.092Z,44.57
2018-12-27T03:26:24.011Z,44.57
2018-12-27T03:27:23.953Z,44.52
2018-12-27T03:28:23.989Z,44.52
2018-12-27T03:29:24.061Z,44.55
2018-12-27T03:30:24.080Z,44.55
2018-12-27T03:31:24.168Z,44.55
2018-12-27T03:32:23.951Z,44.53
2018-12-27T03:33:23.955Z,44.53
2018-12-27T03:34:23.934Z,44.52
2018-12-27T03:35:24.025Z,44.54
2018-12-27T03:36:23.896Z,44.54
2018-12-27T03:37:23.873Z,44.56
2018-12-27T03:38:23.889Z,44.54
2018-12-27T03:39:24.228Z,44.55
2018-12-27T03:40:23.959Z,44.55
2018-12-27T03:41:24.109Z,44.52
2018-12-27T03:42:23.936Z,44.59
2018-12-27T03:43:24.005Z,44.58
2018-12-27T03:44:24.029Z,44.55
2018-12-27T03:45:24.419Z,44.54
2018-12-27T03:46:24.166Z,44.51
2018-12-27T03:47:24.805Z,44.55
2018-12-27T03:48:23.918Z,44.52
2018-12-27T03:49:24.067Z,44.56
2018-12-27T03:50:24.342Z,44.51
2018-12-27T03:51:24.155Z,44.54
2018-12-27T03:52:24.386Z,44.53
2018-12-27T03:53:23.856Z,44.52
2018-12-27T03:54:23.994Z,44.52
2018-12-27T03:55:24.283Z,44.51
2018-12-27T03:56:23.969Z,44.5
2018-12-27T03:57:24.759Z,44.5
2018-12-27T03:58:23.949Z,44.51
2018-12-27T03:59:23.865Z,44.49
2018-12-27T04:00:24.208Z,44.53
2018-12-27T04:01:23.971Z,44.47
2018-12-27T04:02:24.119Z,44.51
2018-12-27T04:03:23.923Z,44.55
2018-12-27T04:04:24.048Z,44.5
2018-12-27T04:05:23.868Z,44.51
2018-12-27T04:06:24.042Z,44.51
2018-12-27T04:07:23.954Z,44.52
2018-12-27T04:08:24.199Z,44.48
2018-12-27T04:09:24.779Z,44.49
2018-12-27T04:10:23.899Z,44.54
2018-12-27T04:11:24.382Z,44.52
2018-12-27T04:12:23.851Z,44.53
2018-12-27T04:13:24.532Z,44.49
2018-12-27T04:14:24.822Z,44.53
2018-12-27T04:15:23.914Z,44.53
2018-12-27T04:16:23.877Z,44.55
2018-12-27T04:17:24.223Z,44.57
2018-12-27T04:18:25.049Z,44.52
2018-12-27T04:19:23.944Z,44.49
2018-12-27T04:20:24.234Z,44.52
2018-12-27T04:21:24.047Z,44.47
2018-12-27T04:22:23.880Z,44.48
2018-12-27T04:23:24.300Z,44.47
2018-12-27T04:24:23.860Z,44.48
2018-12-27T04:25:23.807Z,44.47
2018-12-27T04:26:23.983Z,44.52
2018-12-27T04:27:23.838Z,44.48
2018-12-27T04:28:23.864Z,44.46
2018-12-27T04:29:23.854Z,44.53
2018-12-27T04:30:23.822Z,44.48
2018-12-27T04:31:24.407Z,44.52
2018-12-27T04:32:23.814Z,44.53
2018-12-27T04:33:23.988Z,44.54
2018-12-27T04:34:24.039Z,44.54
2018-12-27T04:35:24.092Z,44.55
2018-12-27T04:36:24.459Z,44.52
2018-12-27T04:37:23.958Z,44.53
2018-12-27T04:38:23.964Z,44.55
2018-12-27T04:39:24.038Z,44.57
2018-12-27T04:40:23.853Z,44.58
2018-12-27T04:41:24.171Z,44.58
2018-12-27T04:42:23.834Z,44.58
2018-12-27T04:43:23.948Z,44.53
2018-12-27T04:44:24.290Z,44.58
2018-12-27T04:45:23.955Z,44.58
2018-12-27T04:46:23.863Z,44.61
2018-12-27T04:47:24.169Z,44.62
2018-12-27T04:48:23.815Z,44.63
2018-12-27T04:49:23.737Z,44.66
2018-12-27T04:50:23.948Z,44.63
2018-12-27T04:51:24.155Z,44.64
2018-12-27T04:52:23.937Z,44.64
2018-12-27T04:53:24.090Z,44.67
2018-12-27T04:54:24.298Z,44.67
2018-12-27T04:55:23.822Z,44.68
2018-12-27T04:56:23.808Z,44.63
2018-12-27T04:57:23.819Z,44.75
2018-12-27T04:58:23.915Z,44.8
2018-12-27T04:59:23.973Z,44.83
2018-12-27T05:00:24.144Z,44.84
2018-12-27T05:01:23.842Z,44.82
2018-12-27T05:02:24.023Z,44.86
2018-12-27T05:03:23.992Z,44.87
2018-12-27T05:04:23.944Z,44.81
2018-12-27T05:05:24.364Z,44.82
2018-12-27T05:06:23.798Z,44.84
2018-12-27T05:07:23.781Z,44.82
2018-12-27T05:08:24.210Z,44.81
2018-12-27T05:09:23.814Z,44.79
2018-12-27T05:10:24.649Z,44.77
2018-12-27T05:11:23.908Z,44.77
2018-12-27T05:12:23.946Z,44.75
2018-12-27T05:13:23.983Z,44.75
2018-12-27T05:14:23.905Z,44.73
2018-12-27T05:15:23.972Z,44.75
2018-12-27T05:16:24.249Z,44.7
2018-12-27T05:17:24.345Z,44.7
2018-12-27T05:18:24.015Z,44.65
2018-12-27T05:19:23.974Z,44.68
2018-12-27T05:20:23.981Z,44.62
2018-12-27T05:21:23.993Z,44.66
2018-12-27T05:22:23.991Z,44.62
2018-12-27T05:23:23.882Z,44.61
2018-12-27T05:24:24.208Z,44.59
2018-12-27T05:25:23.768Z,44.57
2018-12-27T05:26:23.804Z,44.56
2018-12-27T05:27:24.665Z,44.52
2018-12-27T05:28:23.945Z,44.57
2018-12-27T05:29:23.869Z,44.54
2018-12-27T05:30:24.063Z,44.57
2018-12-27T05:31:23.864Z,44.51
2018-12-27T05:32:23.940Z,44.52
2018-12-27T05:33:23.933Z,44.52
2018-12-27T05:34:26.882Z,44.51
2018-12-27T05:35:23.902Z,44.52
2018-12-27T05:36:24.197Z,44.55
2018-12-27T05:37:23.772Z,44.47
2018-12-27T05:38:24.110Z,44.48
2018-12-27T05:39:24.127Z,44.54
2018-12-27T05:40:23.808Z,44.5
2018-12-27T05:41:24.329Z,44.52
2018-12-27T05:42:23.863Z,44.51
2018-12-27T05:43:24.001Z,44.48
2018-12-27T05:44:23.949Z,44.52
2018-12-27T05:45:23.930Z,44.5
2018-12-27T05:46:24.149Z,44.48
2018-12-27T05:47:23.814Z,44.52
2018-12-27T05:48:24.152Z,44.52
2018-12-27T05:49:23.970Z,44.44
2018-12-27T05:50:24.098Z,44.47
2018-12-27T05:51:24.717Z,44.5
2018-12-27T05:52:24.107Z,44.48
2018-12-27T05:53:24.099Z,44.47
2018-12-27T05:54:24.121Z,44.44
2018-12-27T05:55:24.471Z,44.46
2018-12-27T05:56:23.792Z,44.46
2018-12-27T05:57:24.124Z,44.44
2018-12-27T05:58:24.082Z,44.45
2018-12-27T05:59:24.045Z,44.43
2018-12-27T06:00:24.059Z,44.43
2018-12-27T06:01:23.861Z,44.43
2018-12-27T06:02:23.852Z,44.41
2018-12-27T06:03:23.779Z,44.45
2018-12-27T06:04:23.912Z,44.46
2018-12-27T06:05:24.303Z,44.44
2018-12-27T06:06:23.806Z,44.42
2018-12-27T06:07:24.010Z,44.43
2018-12-27T06:08:23.793Z,44.44
2018-12-27T06:09:23.817Z,44.37
2018-12-27T06:10:23.846Z,44.44
2018-12-27T06:11:24.704Z,44.41
2018-12-27T06:12:24.133Z,44.42
2018-12-27T06:13:24.033Z,44.37
2018-12-27T06:14:24.037Z,44.4
2018-12-27T06:15:24.376Z,44.45
2018-12-27T06:16:23.792Z,44.41
2018-12-27T06:17:24.061Z,44.4
2018-12-27T06:18:23.980Z,44.35
2018-12-27T06:19:24.751Z,44.41
2018-12-27T06:20:23.808Z,44.37
2018-12-27T06:21:23.776Z,44.37
2018-12-27T06:22:24.070Z,44.4
2018-12-27T06:23:23.892Z,44.4
2018-12-27T06:24:23.938Z,44.39
2018-12-27T06:25:24.131Z,44.41
2018-12-27T06:26:24.045Z,44.34
2018-12-27T06:27:23.900Z,44.35
2018-12-27T06:28:23.915Z,44.33
2018-12-27T06:29:23.908Z,44.38
2018-12-27T06:30:23.948Z,44.35
2018-12-27T06:31:23.756Z,44.36
2018-12-27T06:32:23.828Z,44.35
2018-12-27T06:33:24.268Z,44.34
2018-12-27T06:34:23.770Z,44.34
2018-12-27T06:35:23.760Z,44.33
2018-12-27T06:36:24.046Z,44.28
2018-12-27T06:37:23.767Z,44.32
2018-12-27T06:38:23.929Z,44.28
2018-12-27T06:39:24.132Z,44.37
2018-12-27T06:40:24.257Z,44.3
2018-12-27T06:41:23.938Z,44.33
2018-12-27T06:42:23.794Z,44.29
2018-12-27T06:43:24.154Z,44.22
2018-12-27T06:44:23.778Z,44.27
2018-12-27T06:45:23.871Z,44.27
2018-12-27T06:46:23.806Z,44.28
2018-12-27T06:47:23.933Z,44.26
2018-12-27T06:48:23.935Z,44.19
2018-12-27T06:49:23.917Z,44.24
2018-12-27T06:50:23.924Z,44.21
2018-12-27T06:51:24.322Z,44.24
2018-12-27T06:52:23.993Z,44.22
2018-12-27T06:53:23.775Z,44.21
2018-12-27T06:54:23.926Z,44.25
2018-12-27T06:55:23.947Z,44.22
2018-12-27T06:56:24.017Z,44.2
2018-12-27T06:57:24.396Z,44.14
2018-12-27T06:58:24.031Z,44.21
2018-12-27T06:59:23.989Z,44.21
2018-12-27T07:00:24.169Z,44.16
2018-12-27T07:01:23.722Z,44.15
2018-12-27T07:02:23.759Z,44.14
2018-12-27T07:03:24.037Z,44.15
2018-12-27T07:04:24.719Z,44.15
2018-12-27T07:05:23.850Z,44.15
2018-12-27T07:06:23.945Z,44.14
2018-12-27T07:07:24.284Z,44.14
2018-12-27T07:08:24.243Z,44.17
2018-12-27T07:09:23.857Z,44.14
2018-12-27T07:10:24.107Z,44.16
2018-12-27T07:11:23.739Z,44.11
2018-12-27T07:12:23.947Z,44.12
2018-12-27T07:13:24.171Z,44.12
2018-12-27T07:14:24.156Z,44.12
2018-12-27T07:15:23.915Z,44.1
2018-12-27T07:16:23.807Z,44.1
2018-12-27T07:17:23.880Z,44.09
2018-12-27T07:18:24.702Z,44.08
2018-12-27T07:19:24.159Z,44.05
2018-12-27T07:20:23.794Z,44.03
2018-12-27T07:21:23.667Z,44.05
2018-12-27T07:22:23.768Z,44.1
2018-12-27T07:23:23.765Z,44.03
2018-12-27T07:24:23.837Z,44.04
2018-12-27T07:25:24.286Z,44.03
2018-12-27T07:26:23.762Z,43.96
2018-12-27T07:27:24.467Z,44.1
2018-12-27T07:28:24.092Z,44.11
2018-12-27T07:29:24.267Z,44
2018-12-27T07:30:23.918Z,44.06
2018-12-27T07:31:23.757Z,44.02
2018-12-27T07:32:23.879Z,44.02
2018-12-27T07:33:24.374Z,44.03
2018-12-27T07:34:23.794Z,44.02
2018-12-27T07:35:24.052Z,44.06
2018-12-27T07:36:24.336Z,44
2018-12-27T07:37:24.003Z,44
2018-12-27T07:38:23.868Z,44.01
2018-12-27T07:39:23.998Z,43.98
2018-12-27T07:40:23.894Z,44
2018-12-27T07:41:23.988Z,43.99
2018-12-27T07:42:23.695Z,43.96
2018-12-27T07:43:24.305Z,43.94
2018-12-27T07:44:24.102Z,43.96
2018-12-27T07:45:23.912Z,43.97
2018-12-27T07:46:23.794Z,43.93
2018-12-27T07:47:24.196Z,43.94
2018-12-27T07:48:24.047Z,43.93
2018-12-27T07:49:23.821Z,43.99
2018-12-27T07:50:23.937Z,43.95
2018-12-27T07:51:24.036Z,43.89
2018-12-27T07:52:23.650Z,43.95
2018-12-27T07:53:23.916Z,43.92
2018-12-27T07:54:24.057Z,43.9
2018-12-27T07:55:23.876Z,43.93
2018-12-27T07:56:23.636Z,43.98
2018-12-27T07:57:23.800Z,43.94
2018-12-27T07:58:23.807Z,44
2018-12-27T07:59:23.826Z,43.89
2018-12-27T08:00:24.684Z,43.9
2018-12-27T08:01:24.054Z,43.89
2018-12-27T08:02:24.679Z,43.94
2018-12-27T08:03:24.118Z,43.87
2018-12-27T08:04:23.755Z,43.93
2018-12-27T08:05:23.798Z,43.95
2018-12-27T08:06:23.762Z,43.89
2018-12-27T08:07:24.031Z,43.94
2018-12-27T08:08:23.755Z,43.95
2018-12-27T08:09:23.766Z,43.92
2018-12-27T08:10:23.872Z,43.87
2018-12-27T08:11:23.877Z,43.89
2018-12-27T08:12:24.278Z,43.82
2018-12-27T08:13:23.915Z,43.84
2018-12-27T08:14:24.280Z,43.83
2018-12-27T08:15:24.119Z,43.78
2018-12-27T08:16:23.934Z,43.86
2018-12-27T08:17:23.831Z,43.8
2018-12-27T08:18:23.801Z,43.87
2018-12-27T08:19:24.008Z,43.77
2018-12-27T08:20:23.866Z,43.83
2018-12-27T08:21:24.157Z,43.76
2018-12-27T08:22:23.848Z,43.82
2018-12-27T08:23:23.956Z,43.78
2018-12-27T08:24:23.867Z,43.76
2018-12-27T08:25:23.814Z,43.82
2018-12-27T08:26:23.822Z,43.87
2018-12-27T08:27:23.978Z,43.75
2018-12-27T08:28:24.111Z,43.76
2018-12-27T08:29:24.014Z,43.76
2018-12-27T08:30:23.785Z,43.82
2018-12-27T08:31:23.755Z,43.8
2018-12-27T08:32:23.736Z,43.78
2018-12-27T08:33:23.755Z,43.8
2018-12-27T08:34:23.816Z,43.9
2018-12-27T08:35:24.026Z,43.78
2018-12-27T08:36:23.885Z,43.78
2018-12-27T08:37:24.118Z,43.77
2018-12-27T08:38:23.733Z,43.76
2018-12-27T08:39:23.881Z,43.83
2018-12-27T08:40:24.038Z,43.81
2018-12-27T08:41:24.051Z,43.78
2018-12-27T08:42:23.973Z,43.78
2018-12-27T08:43:24.014Z,43.77
2018-12-27T08:44:24.116Z,43.76
2018-12-27T08:45:24.655Z,43.74
2018-12-27T08:46:24.023Z,43.82
2018-12-27T08:47:23.726Z,43.84
2018-12-27T08:48:24.034Z,43.68
2018-12-27T08:49:24.103Z,43.33
2018-12-27T08:50:23.850Z,42.89
2018-12-27T08:51:23.967Z,42.22
2018-12-27T08:52:23.859Z,41.69
2018-12-27T08:53:23.856Z,40.99
2018-12-27T08:54:24.219Z,41.66
2018-12-27T08:55:24.026Z,42.05
2018-12-27T08:56:24.070Z,42.54
2018-12-27T08:57:24.647Z,42.72
2018-12-27T08:58:23.786Z,42.84
2018-12-27T08:59:24.011Z,42.86
2018-12-27T09:00:24.118Z,42.89
2018-12-27T09:01:23.982Z,42.94
2018-12-27T09:02:23.869Z,43
2018-12-27T09:03:23.791Z,43.13
2018-12-27T09:04:23.746Z,43.05
2018-12-27T09:05:24.085Z,43.1
2018-12-27T09:06:23.853Z,43.18
2018-12-27T09:07:23.904Z,43.17
2018-12-27T09:08:23.888Z,43.18
2018-12-27T09:09:24.251Z,43.18
2018-12-27T09:10:23.892Z,43.26
2018-12-27T09:11:23.745Z,43.29
2018-12-27T09:12:23.734Z,43.25
2018-12-27T09:13:24.638Z,43.23
2018-12-27T09:14:23.976Z,43.23
2018-12-27T09:15:23.843Z,43.32
2018-12-27T09:16:23.698Z,43.27
2018-12-27T09:17:24.323Z,43.29
2018-12-27T09:18:24.638Z,43.27
2018-12-27T09:19:23.734Z,43.31
2018-12-27T09:20:23.912Z,43.36
2018-12-27T09:21:23.943Z,43.34
2018-12-27T09:22:24.087Z,43.34
2018-12-27T09:23:24.069Z,43.3
2018-12-27T09:24:24.079Z,43.31
2018-12-27T09:25:24.073Z,43.37
2018-12-27T09:26:24.445Z,43.31
2018-12-27T09:27:23.721Z,43.32
2018-12-27T09:28:23.804Z,43.36
2018-12-27T09:29:23.910Z,43.35
2018-12-27T09:30:23.820Z,43.32
2018-12-27T09:31:23.727Z,43.34
2018-12-27T09:32:24.149Z,43.38
2018-12-27T09:33:24.381Z,43.35
2018-12-27T09:34:24.066Z,43.39
2018-12-27T09:35:26.877Z,43.34
2018-12-27T09:36:23.830Z,43.35
2018-12-27T09:37:23.969Z,43.38
2018-12-27T09:38:24.290Z,43.39
2018-12-27T09:39:23.822Z,43.36
2018-12-27T09:40:23.779Z,43.45
2018-12-27T09:41:23.713Z,43.44
2018-12-27T09:42:24.426Z,42.85
2018-12-27T09:43:24.167Z,41.7
2018-12-27T09:44:23.807Z,41
2018-12-27T09:45:23.872Z,40.58
2018-12-27T09:46:23.894Z,40.9
2018-12-27T09:47:23.753Z,40.67
2018-12-27T09:48:23.909Z,40.99
2018-12-27T09:49:24.084Z,40.99
2018-12-27T09:50:23.839Z,41.2
2018-12-27T09:51:23.828Z,41.33
2018-12-27T09:52:23.776Z,41.47
2018-12-27T09:53:23.713Z,41.5
2018-12-27T09:54:23.884Z,41.5
2018-12-27T09:55:23.621Z,41.6
2018-12-27T09:56:23.916Z,41.38
2018-12-27T09:57:24.004Z,41.07
2018-12-27T09:58:24.000Z,41.29
2018-12-27T09:59:23.848Z,41.44
2018-12-27T10:00:23.836Z,41.68
2018-12-27T10:01:23.979Z,41.91
2018-12-27T10:02:23.697Z,42.04
2018-12-27T10:03:23.832Z,42.21
2018-12-27T10:04:23.756Z,42.23
2018-12-27T10:05:23.830Z,42.33
2018-12-27T10:06:23.969Z,42.38
2018-12-27T10:07:23.690Z,42.45
2018-12-27T10:08:23.908Z,41.97
2018-12-27T10:09:24.200Z,41.13
2018-12-27T10:10:23.832Z,41.63
2018-12-27T10:11:24.198Z,41.36
2018-12-27T10:12:24.028Z,41.44
2018-12-27T10:13:23.704Z,40.82
2018-12-27T10:14:23.737Z,40.72
2018-12-27T10:15:24.185Z,40.84
2018-12-27T10:16:24.039Z,41.93
2018-12-27T10:17:23.840Z,42.12
2018-12-27T10:18:24.071Z,42.2
2018-12-27T10:19:23.979Z,42.41
2018-12-27T10:20:23.867Z,42.29
2018-12-27T10:21:24.058Z,42.12
2018-12-27T10:22:23.737Z,41.61
2018-12-27T10:23:24.037Z,42.25
2018-12-27T10:24:23.682Z,41.31
2018-12-27T10:25:23.716Z,40.63
2018-12-27T10:26:23.999Z,41.07
2018-12-27T10:27:23.790Z,41.42
2018-12-27T10:28:23.766Z,41.55
2018-12-27T10:29:23.939Z,41.68
2018-12-27T10:30:23.831Z,41.87
2018-12-27T10:31:23.856Z,42.15
2018-12-27T10:32:16.372Z,44.45
2018-12-27T10:33:15.866Z,42.67
2018-12-27T10:34:15.949Z,42.54
2018-12-27T10:35:15.958Z,42.37
2018-12-27T10:36:15.950Z,42.46
2018-12-27T10:37:16.448Z,42.37
2018-12-27T10:38:15.999Z,42.42
2018-12-27T10:39:16.306Z,42.39
2018-12-27T10:40:16.676Z,42.44
2018-12-27T10:41:16.432Z,42.42
2018-12-27T10:42:16.648Z,42.46
2018-12-27T10:43:15.772Z,42.45
2018-12-27T10:44:16.241Z,42.45
2018-12-27T10:45:15.904Z,42.52
2018-12-27T10:46:15.855Z,42.56
2018-12-27T10:47:16.028Z,42.52
2018-12-27T10:48:16.391Z,42.54
2018-12-27T10:49:16.358Z,42.54
2018-12-27T10:50:16.316Z,42.62
2018-12-27T10:51:16.054Z,42.62
2018-12-27T10:52:15.820Z,42.62
2018-12-27T10:53:16.098Z,42.75
2018-12-27T10:54:15.805Z,42.78
2018-12-27T10:55:15.991Z,42.77
2018-12-27T10:56:15.812Z,42.76
2018-12-27T10:57:15.940Z,43.1
2018-12-27T10:58:15.986Z,42.88
2018-12-27T10:59:15.764Z,42.86
2018-12-27T11:00:16.169Z,42.97
2018-12-27T11:01:15.709Z,42.93
2018-12-27T11:02:15.790Z,42.91
2018-12-27T11:03:16.071Z,42.96
2018-12-27T11:04:15.749Z,43.01
2018-12-27T11:05:15.766Z,43
2018-12-27T11:06:15.733Z,43.08
2018-12-27T11:07:16.034Z,43.02
2018-12-27T11:08:16.004Z,43.03
2018-12-27T11:09:15.746Z,43.09
2018-12-27T11:10:16.144Z,43.08
2018-12-27T11:11:15.958Z,43.05
2018-12-27T11:12:15.984Z,43.32
2018-12-27T11:13:16.252Z,43.13
2018-12-27T11:14:16.414Z,43.19
2018-12-27T11:15:16.095Z,43.13
2018-12-27T11:16:15.775Z,43.13
2018-12-27T11:17:42.687Z,43.19
2018-12-27T11:18:42.370Z,43.25
2018-12-27T11:19:42.409Z,43.18
2018-12-27T11:21:15.523Z,43.23
2018-12-27T11:22:15.573Z,43.3
2018-12-27T11:23:15.488Z,43.27
2018-12-27T11:24:15.710Z,43.27
2018-12-27T11:25:15.989Z,43.28
2018-12-27T11:26:15.491Z,43.29
2018-12-27T11:27:12.181Z,43.32
2018-12-27T11:28:12.904Z,43.29
2018-12-27T11:29:12.040Z,43.28
2018-12-27T11:30:44.413Z,43.32
2018-12-27T11:31:44.447Z,43.31
2018-12-27T11:32:40.740Z,43.3
2018-12-27T11:33:40.365Z,43.31
2018-12-27T11:34:40.611Z,43.27
2018-12-27T11:35:40.609Z,43.32
2018-12-27T11:36:40.766Z,43.39
2018-12-27T11:37:40.652Z,43.34
2018-12-27T11:38:37.208Z,43.36
2018-12-27T11:39:37.204Z,43.36
2018-12-27T11:40:36.816Z,43.38
2018-12-27T11:41:36.970Z,43.38
2018-12-27T11:42:37.128Z,43.4
2018-12-27T11:43:37.576Z,43.38
2018-12-27T11:44:36.951Z,43.38
2018-12-27T11:45:36.650Z,43.38
2018-12-27T11:46:37.650Z,43.43
2018-12-27T11:47:16.306Z,43.43
2018-12-27T11:48:16.766Z,43.42
2018-12-27T11:49:16.014Z,43.39
2018-12-27T11:50:07.093Z,43.41
2018-12-27T11:51:08.828Z,43.38
2018-12-27T11:52:06.941Z,43.34
2018-12-27T11:53:06.787Z,43.26
2018-12-27T11:54:06.931Z,43.36
2018-12-27T11:55:06.737Z,43.28
2018-12-27T11:56:07.012Z,43.36
2018-12-27T11:57:07.000Z,43.37
2018-12-27T11:58:07.130Z,43.39
2018-12-27T11:59:07.106Z,43.39
2018-12-27T12:00:07.102Z,43.33
2018-12-27T12:01:06.847Z,43.28
2018-12-27T12:02:06.913Z,43.27
2018-12-27T12:03:07.154Z,43.21
2018-12-27T12:04:06.848Z,43.28
2018-12-27T12:05:06.766Z,43.27
2018-12-27T12:06:07.286Z,43.21
2018-12-27T12:07:06.826Z,43.34
2018-12-27T12:08:07.191Z,43.28
2018-12-27T12:09:07.068Z,43.26
2018-12-27T12:10:07.003Z,43.32
2018-12-27T12:11:06.789Z,43.2
2018-12-27T12:12:07.200Z,43.05
2018-12-27T12:13:07.103Z,43.17
2018-12-27T12:14:07.090Z,43.05
2018-12-27T12:15:07.591Z,43.06
2018-12-27T12:16:07.175Z,43.07
2018-12-27T12:17:07.011Z,42.97
2018-12-27T12:18:06.689Z,42.89
2018-12-27T12:19:06.958Z,43.05
2018-12-27T12:20:07.055Z,42.97
2018-12-27T12:21:07.370Z,42.97
2018-12-27T12:22:07.246Z,42.97
2018-12-27T12:23:06.795Z,42.97
2018-12-27T12:24:06.902Z,42.89
2018-12-27T12:25:06.971Z,42.97
2018-12-27T12:26:07.007Z,42.92
2018-12-27T12:27:06.841Z,42.85
2018-12-27T12:28:07.352Z,42.89
2018-12-27T12:29:06.838Z,42.9
2018-12-27T12:30:06.589Z,42.88
2018-12-27T12:31:06.781Z,42.93
2018-12-27T12:32:06.792Z,42.93
2018-12-27T12:33:07.158Z,42.86
2018-12-27T12:34:06.672Z,42.84
2018-12-27T12:35:06.844Z,42.7
2018-12-27T12:36:11.406Z,42.72
2018-12-27T12:37:14.499Z,42.85
2018-12-27T12:38:06.937Z,42.65
2018-12-27T12:39:06.964Z,42.72
2018-12-27T12:40:06.902Z,42.61
2018-12-27T12:41:07.112Z,42.72
2018-12-27T12:42:06.917Z,42.79
2018-12-27T12:43:06.783Z,42.78
2018-12-27T12:44:07.139Z,42.86
2018-12-27T12:45:06.659Z,42.82
2018-12-27T12:46:06.853Z,42.89
2018-12-27T12:47:07.176Z,42.96
2018-12-27T12:48:06.839Z,42.91
2018-12-27T12:49:06.889Z,42.93
2018-12-27T12:50:06.755Z,43
2018-12-27T12:51:06.957Z,42.93
2018-12-27T12:52:06.960Z,42.93
2018-12-27T12:53:06.959Z,42.98
2018-12-27T12:54:06.990Z,42.93
2018-12-27T12:55:06.953Z,43.09
2018-12-27T12:56:07.099Z,42.99